createdAt,value
2023-03-05T00:00:35.251Z,0
2023-03-05T00:01:35.330Z,0
2023-03-05T00:02:36.574Z,0
2023-03-05T00:03:36.746Z,0
2023-03-05T00:04:37.231Z,0
2023-03-05T00:05:38.452Z,0
2023-03-05T00:06:38.656Z,0
2023-03-05T00:07:39.625Z,0
2023-03-05T00:08:40.193Z,0
2023-03-05T00:09:41.645Z,0
2023-03-05T00:10:40.975Z,0
2023-03-05T00:11:41.931Z,0
2023-03-05T00:12:41.829Z,0
2023-03-05T00:13:43.343Z,0
2023-03-05T00:14:43.551Z,0
2023-03-05T00:15:44.904Z,0
2023-03-05T00:16:45.232Z,0
2023-03-05T00:17:46.176Z,0
2023-03-05T00:18:46.536Z,0
2023-03-05T00:19:48.460Z,0
2023-03-05T00:20:48.900Z,0
2023-03-05T00:21:49.581Z,0
2023-03-05T00:22:50.536Z,0
2023-03-05T00:23:51.542Z,0
2023-03-05T00:24:51.777Z,0
2023-03-05T00:25:52.729Z,0
2023-03-05T00:26:52.965Z,0
2023-03-05T00:27:53.494Z,0
2023-03-05T00:28:53.900Z,0
2023-03-05T00:29:54.866Z,0
2023-03-05T00:30:55.092Z,0
2023-03-05T00:31:55.078Z,0
2023-03-05T00:32:55.418Z,0
2023-03-05T00:33:56.635Z,0
2023-03-05T00:34:56.011Z,0
2023-03-05T00:35:57.667Z,0
2023-03-05T00:36:57.379Z,0
2023-03-05T00:37:58.526Z,0
2023-03-05T00:38:59.085Z,0
2023-03-05T00:39:59.375Z,0
2023-03-05T00:40:59.507Z,0
2023-03-05T00:42:00.438Z,0
2023-03-05T00:43:00.379Z,0
2023-03-05T00:44:00.357Z,0
2023-03-05T00:45:01.301Z,0
2023-03-05T00:46:01.535Z,0
2023-03-05T00:47:02.421Z,0
2023-03-05T00:48:03.631Z,0
2023-03-05T00:49:03.287Z,0
2023-03-05T00:50:04.222Z,0
2023-03-05T00:51:04.558Z,0
2023-03-05T00:52:05.472Z,0
2023-03-05T00:53:05.420Z,0
2023-03-05T00:54:06.717Z,0
2023-03-05T00:55:06.933Z,0
2023-03-05T00:56:06.869Z,0
2023-03-05T00:57:07.800Z,0
2023-03-05T00:58:09.037Z,0
2023-03-05T00:59:09.344Z,0
2023-03-05T01:00:10.271Z,0
2023-03-05T01:01:10.978Z,0
2023-03-05T01:02:11.943Z,0
2023-03-05T01:03:12.594Z,0
2023-03-05T01:04:12.830Z,0
2023-03-05T01:05:13.672Z,0
2023-03-05T01:06:14.347Z,0
2023-03-05T01:07:14.263Z,0
2023-03-05T01:08:14.551Z,0
2023-03-05T01:09:15.820Z,0
2023-03-05T01:10:16.044Z,0
2023-03-05T01:11:17.106Z,0
2023-03-05T01:12:18.062Z,0
2023-03-05T01:13:18.002Z,0
2023-03-05T01:14:19.516Z,0
2023-03-05T01:15:20.018Z,0
2023-03-05T01:16:20.984Z,0
2023-03-05T01:17:20.991Z,0
2023-03-05T01:18:20.921Z,0
2023-03-05T01:19:21.684Z,0
2023-03-05T01:20:22.595Z,0
2023-03-05T01:21:23.342Z,0
2023-03-05T01:22:23.844Z,0
2023-03-05T01:23:23.878Z,0
2023-03-05T01:24:25.472Z,0
2023-03-05T01:25:26.010Z,0
2023-03-05T01:26:25.937Z,0
2023-03-05T01:27:26.135Z,0
2023-03-05T01:28:27.329Z,0
2023-03-05T01:29:28.307Z,0
2023-03-05T01:30:27.936Z,0
2023-03-05T01:31:29.988Z,0
2023-03-05T01:32:30.233Z,0
2023-03-05T01:33:30.721Z,0
2023-03-05T01:34:30.349Z,0
2023-03-05T01:35:32.202Z,0
2023-03-05T01:36:32.171Z,0
2023-03-05T01:37:32.847Z,0
2023-03-05T01:38:33.563Z,0
2023-03-05T01:39:34.244Z,0
2023-03-05T01:40:34.376Z,0
2023-03-05T01:41:35.388Z,0
2023-03-05T01:42:35.754Z,0
2023-03-05T01:43:37.600Z,0
2023-03-05T01:44:38.270Z,0
2023-03-05T01:45:38.980Z,0
2023-03-05T01:46:38.987Z,0
2023-03-05T01:47:39.906Z,0
2023-03-05T01:48:40.838Z,0
2023-03-05T01:49:41.552Z,0
2023-03-05T01:50:42.780Z,0
2023-03-05T01:51:43.129Z,0
2023-03-05T01:52:44.075Z,0
2023-03-05T01:53:45.295Z,0
2023-03-05T01:54:46.280Z,0
2023-03-05T01:55:46.224Z,0
2023-03-05T01:56:47.152Z,0
2023-03-05T01:57:47.081Z,0
2023-03-05T01:58:46.720Z,0
2023-03-05T01:59:47.936Z,0
2023-03-05T02:00:49.056Z,0
2023-03-05T02:01:49.672Z,0
2023-03-05T02:02:49.618Z,0
2023-03-05T02:03:49.684Z,0
2023-03-05T02:04:50.684Z,0
2023-03-05T02:05:51.317Z,0
2023-03-05T02:06:52.511Z,0
2023-03-05T02:07:52.726Z,0
2023-03-05T02:08:53.954Z,0
2023-03-05T02:09:54.247Z,0
2023-03-05T02:10:54.482Z,0
2023-03-05T02:11:54.827Z,0
2023-03-05T02:12:54.764Z,0
2023-03-05T02:13:55.716Z,0
2023-03-05T02:14:56.056Z,0
2023-03-05T02:15:56.688Z,0
2023-03-05T02:16:57.337Z,0
2023-03-05T02:17:58.356Z,0
2023-03-05T02:18:59.294Z,0
2023-03-05T02:20:00.531Z,0
2023-03-05T02:21:00.760Z,0
2023-03-05T02:22:00.951Z,0
2023-03-05T02:23:02.154Z,0
2023-03-05T02:24:03.096Z,0
2023-03-05T02:25:04.116Z,0
2023-03-05T02:26:04.342Z,0
2023-03-05T02:27:05.281Z,0
2023-03-05T02:28:05.496Z,0
2023-03-05T02:29:06.430Z,0
2023-03-05T02:30:06.648Z,0
2023-03-05T02:31:07.577Z,0
2023-03-05T02:32:08.660Z,0
2023-03-05T02:33:09.127Z,0
2023-03-05T02:34:09.368Z,0
2023-03-05T02:35:10.002Z,0
2023-03-05T02:36:11.303Z,0
2023-03-05T02:37:11.270Z,0
2023-03-05T02:38:12.196Z,0
2023-03-05T02:39:13.138Z,0
2023-03-05T02:40:13.972Z,0
2023-03-05T02:41:14.208Z,0
2023-03-05T02:42:14.664Z,0
2023-03-05T02:43:15.893Z,0
2023-03-05T02:44:16.148Z,0
2023-03-05T02:45:16.351Z,0
2023-03-05T02:46:17.552Z,0
2023-03-05T02:47:18.125Z,0
2023-03-05T02:48:17.492Z,0
2023-03-05T02:49:19.122Z,0
2023-03-05T02:50:19.661Z,0
2023-03-05T02:51:19.023Z,0
2023-03-05T02:52:20.348Z,0
2023-03-05T02:53:21.273Z,0
2023-03-05T02:54:21.744Z,0
2023-03-05T02:55:23.037Z,0
2023-03-05T02:56:23.567Z,0
2023-03-05T02:57:23.505Z,0
2023-03-05T02:58:24.706Z,0
2023-03-05T02:59:24.632Z,0
2023-03-05T03:00:25.027Z,0
2023-03-05T03:01:26.164Z,0
2023-03-05T03:02:26.343Z,0
2023-03-05T03:03:27.044Z,0
2023-03-05T03:04:27.213Z,0
2023-03-05T03:05:27.712Z,0
2023-03-05T03:06:27.360Z,0
2023-03-05T03:07:28.561Z,0
2023-03-05T03:08:29.046Z,0
2023-03-05T03:09:29.625Z,0
2023-03-05T03:10:30.189Z,0
2023-03-05T03:11:30.711Z,0
2023-03-05T03:12:30.776Z,0
2023-03-05T03:13:31.716Z,0
2023-03-05T03:14:32.068Z,0
2023-03-05T03:15:33.058Z,0
2023-03-05T03:16:34.122Z,0
2023-03-05T03:17:33.852Z,0
2023-03-05T03:18:35.354Z,0
2023-03-05T03:19:35.263Z,0
2023-03-05T03:20:35.917Z,0
2023-03-05T03:21:37.153Z,0
2023-03-05T03:22:37.587Z,0
2023-03-05T03:23:38.819Z,0
2023-03-05T03:24:39.754Z,0
2023-03-05T03:25:40.800Z,0
2023-03-05T03:26:40.743Z,0
2023-03-05T03:27:41.952Z,0
2023-03-05T03:28:42.156Z,0
2023-03-05T03:29:42.688Z,0
2023-03-05T03:30:42.730Z,0
2023-03-05T03:31:44.251Z,0
2023-03-05T03:32:45.059Z,0
2023-03-05T03:33:45.000Z,0
2023-03-05T03:34:45.968Z,0
2023-03-05T03:35:46.720Z,0
2023-03-05T03:36:47.058Z,0
2023-03-05T03:37:47.272Z,0
2023-03-05T03:38:47.770Z,0
2023-03-05T03:39:48.037Z,0
2023-03-05T03:40:48.598Z,0
2023-03-05T03:41:48.805Z,0
2023-03-05T03:42:49.234Z,0
2023-03-05T03:43:50.929Z,0
2023-03-05T03:44:51.182Z,0
2023-03-05T03:45:52.251Z,0
2023-03-05T03:46:52.282Z,0
2023-03-05T03:47:52.499Z,0
2023-03-05T03:48:52.456Z,0
2023-03-05T03:49:53.437Z,0
2023-03-05T03:50:54.181Z,0
2023-03-05T03:51:54.407Z,0
2023-03-05T03:52:54.877Z,0
2023-03-05T03:53:56.126Z,0
2023-03-05T03:54:55.869Z,0
2023-03-05T03:55:56.648Z,0
2023-03-05T03:56:57.228Z,0
2023-03-05T03:57:57.779Z,0
2023-03-05T03:58:58.020Z,0
2023-03-05T03:59:58.510Z,0
2023-03-05T04:00:58.454Z,0
2023-03-05T04:01:59.380Z,0
2023-03-05T04:03:00.000Z,0
2023-03-05T04:04:00.346Z,0
2023-03-05T04:05:00.316Z,0
2023-03-05T04:06:01.247Z,0
2023-03-05T04:07:01.200Z,0
2023-03-05T04:08:02.408Z,0
2023-03-05T04:09:02.071Z,0
2023-03-05T04:10:03.649Z,0
2023-03-05T04:11:04.230Z,0
2023-03-05T04:12:04.755Z,0
2023-03-05T04:13:04.517Z,0
2023-03-05T04:14:05.485Z,0
2023-03-05T04:15:05.409Z,0
2023-03-05T04:16:06.889Z,0
2023-03-05T04:17:06.903Z,0
2023-03-05T04:18:06.840Z,0
2023-03-05T04:19:07.085Z,0
2023-03-05T04:20:07.710Z,0
2023-03-05T04:21:08.965Z,0
2023-03-05T04:22:09.950Z,0
2023-03-05T04:23:10.249Z,0
2023-03-05T04:24:10.455Z,0
2023-03-05T04:25:10.400Z,0
2023-03-05T04:26:11.968Z,0
2023-03-05T04:27:12.198Z,0
2023-03-05T04:28:12.863Z,0
2023-03-05T04:29:13.223Z,0
2023-03-05T04:30:13.573Z,0
2023-03-05T04:31:14.787Z,0
2023-03-05T04:32:14.836Z,0
2023-03-05T04:33:14.993Z,0
2023-03-05T04:34:16.187Z,0
2023-03-05T04:35:16.715Z,0
2023-03-05T04:36:17.041Z,0
2023-03-05T04:37:17.266Z,0
2023-03-05T04:38:17.913Z,0
2023-03-05T04:39:19.420Z,0
2023-03-05T04:40:19.945Z,0
2023-03-05T04:41:20.255Z,0
2023-03-05T04:42:20.188Z,0
2023-03-05T04:43:20.627Z,0
2023-03-05T04:44:21.565Z,0
2023-03-05T04:45:21.789Z,0
2023-03-05T04:46:22.510Z,0
2023-03-05T04:47:22.543Z,0
2023-03-05T04:48:22.909Z,0
2023-03-05T04:49:23.867Z,0
2023-03-05T04:50:24.116Z,0
2023-03-05T04:51:25.040Z,0
2023-03-05T04:52:25.005Z,0
2023-03-05T04:53:25.393Z,0
2023-03-05T04:54:26.332Z,0
2023-03-05T04:55:26.853Z,0
2023-03-05T04:56:27.837Z,0
2023-03-05T04:57:29.688Z,0
2023-03-05T04:58:28.324Z,0
2023-03-05T04:59:29.008Z,0
2023-03-05T05:00:29.983Z,0
2023-03-05T05:01:30.844Z,0
2023-03-05T05:02:31.245Z,0
2023-03-05T05:03:31.125Z,0
2023-03-05T05:04:32.097Z,0
2023-03-05T05:05:32.295Z,0
2023-03-05T05:06:32.927Z,0
2023-03-05T05:07:33.565Z,0
2023-03-05T05:08:35.218Z,0
2023-03-05T05:09:36.439Z,0
2023-03-05T05:10:37.014Z,0
2023-03-05T05:11:37.570Z,0
2023-03-05T05:12:38.087Z,0
2023-03-05T05:13:38.446Z,0
2023-03-05T05:14:38.643Z,0
2023-03-05T05:15:39.570Z,0
2023-03-05T05:16:40.031Z,0
2023-03-05T05:17:40.944Z,0
2023-03-05T05:18:40.879Z,0
2023-03-05T05:19:41.166Z,0
2023-03-05T05:20:42.092Z,0
2023-03-05T05:21:42.598Z,0
2023-03-05T05:22:42.219Z,0
2023-03-05T05:23:43.514Z,0
2023-03-05T05:24:43.756Z,0
2023-03-05T05:25:43.993Z,0
2023-03-05T05:26:45.259Z,0
2023-03-05T05:27:45.778Z,0
2023-03-05T05:28:45.404Z,0
2023-03-05T05:29:46.326Z,0
2023-03-05T05:30:46.950Z,0
2023-03-05T05:31:48.501Z,0
2023-03-05T05:32:48.656Z,4
2023-03-05T05:33:49.944Z,4
2023-03-05T05:34:48.982Z,4
2023-03-05T05:35:49.742Z,0
2023-03-05T05:36:49.712Z,4
2023-03-05T05:37:50.628Z,0
2023-03-05T05:38:51.388Z,4
2023-03-05T05:39:52.322Z,4
2023-03-05T05:40:52.564Z,4
2023-03-05T05:41:52.545Z,4
2023-03-05T05:42:52.785Z,4
2023-03-05T05:43:53.818Z,4
2023-03-05T05:44:53.978Z,8
2023-03-05T05:45:55.234Z,8
2023-03-05T05:46:55.174Z,8
2023-03-05T05:47:56.103Z,8
2023-03-05T05:48:57.309Z,8
2023-03-05T05:49:58.279Z,8
2023-03-05T05:50:58.937Z,8
2023-03-05T05:51:59.567Z,8
2023-03-05T05:53:00.507Z,12
2023-03-05T05:54:00.832Z,12
2023-03-05T05:55:01.047Z,12
2023-03-05T05:56:01.286Z,16
2023-03-05T05:57:02.548Z,12
2023-03-05T05:58:03.058Z,16
2023-03-05T05:59:02.977Z,20
2023-03-05T06:00:03.486Z,20
2023-03-05T06:01:03.440Z,24
2023-03-05T06:02:04.879Z,24
2023-03-05T06:03:05.391Z,24
2023-03-05T06:04:05.808Z,24
2023-03-05T06:05:09.258Z,24
2023-03-05T06:06:07.229Z,24
2023-03-05T06:07:08.177Z,28
2023-03-05T06:08:09.418Z,32
2023-03-05T06:09:09.637Z,40
2023-03-05T06:10:10.327Z,48
2023-03-05T06:11:11.035Z,56
2023-03-05T06:12:12.355Z,60
2023-03-05T06:13:12.596Z,60
2023-03-05T06:14:13.676Z,60
2023-03-05T06:15:14.056Z,60
2023-03-05T06:16:14.868Z,64
2023-03-05T06:17:33.890Z,64
2023-03-05T06:18:16.827Z,64
2023-03-05T06:19:17.773Z,60
2023-03-05T06:20:18.708Z,64
2023-03-05T06:21:19.027Z,68
2023-03-05T06:22:19.419Z,72
2023-03-05T06:23:20.352Z,72
2023-03-05T06:24:20.788Z,72
2023-03-05T06:25:22.099Z,76
2023-03-05T06:26:22.761Z,80
2023-03-05T06:27:24.042Z,84
2023-03-05T06:28:24.287Z,92
2023-03-05T06:29:25.234Z,92
2023-03-05T06:30:25.451Z,92
2023-03-05T06:31:26.056Z,92
2023-03-05T06:32:26.891Z,92
2023-03-05T06:33:26.592Z,92
2023-03-05T06:34:27.032Z,96
2023-03-05T06:35:28.090Z,100
2023-03-05T06:36:28.382Z,112
2023-03-05T06:37:28.031Z,124
2023-03-05T06:38:28.983Z,144
2023-03-05T06:39:29.622Z,160
2023-03-05T06:40:30.913Z,176
2023-03-05T06:41:31.282Z,184
2023-03-05T06:42:31.986Z,192
2023-03-05T06:43:32.237Z,188
2023-03-05T06:44:32.285Z,184
2023-03-05T06:45:33.374Z,184
2023-03-05T06:46:33.422Z,184
2023-03-05T06:47:34.636Z,184
2023-03-05T06:48:35.124Z,180
2023-03-05T06:49:35.341Z,172
2023-03-05T06:50:36.263Z,164
2023-03-05T06:51:36.467Z,164
2023-03-05T06:52:36.666Z,168
2023-03-05T06:53:37.596Z,176
2023-03-05T06:54:37.378Z,188
2023-03-05T06:55:39.016Z,200
2023-03-05T06:56:39.555Z,204
2023-03-05T06:57:40.553Z,216
2023-03-05T06:58:40.768Z,244
2023-03-05T06:59:41.696Z,284
2023-03-05T07:00:42.099Z,308
2023-03-05T07:01:42.436Z,340
2023-03-05T07:02:42.909Z,376
2023-03-05T07:03:42.986Z,400
2023-03-05T07:04:44.340Z,404
2023-03-05T07:05:45.362Z,416
2023-03-05T07:06:45.266Z,448
2023-03-05T07:07:46.491Z,492
2023-03-05T07:08:46.176Z,532
2023-03-05T07:09:46.829Z,528
2023-03-05T07:10:47.755Z,508
2023-03-05T07:11:48.734Z,504
2023-03-05T07:12:49.710Z,524
2023-03-05T07:13:50.221Z,556
2023-03-05T07:14:50.043Z,604
2023-03-05T07:15:51.429Z,640
2023-03-05T07:16:51.436Z,644
2023-03-05T07:17:52.954Z,624
2023-03-05T07:18:52.912Z,596
2023-03-05T07:19:53.831Z,560
2023-03-05T07:20:54.334Z,520
2023-03-05T07:21:54.254Z,484
2023-03-05T07:22:55.571Z,444
2023-03-05T07:23:54.939Z,400
2023-03-05T07:24:55.754Z,380
2023-03-05T07:25:56.454Z,380
2023-03-05T07:27:00.060Z,396
2023-03-05T07:27:57.364Z,416
2023-03-05T07:28:57.586Z,448
2023-03-05T07:29:58.232Z,460
2023-03-05T07:30:59.101Z,460
2023-03-05T07:32:00.197Z,448
2023-03-05T07:33:00.236Z,444
2023-03-05T07:34:00.921Z,468
2023-03-05T07:35:01.983Z,512
2023-03-05T07:36:02.416Z,564
2023-03-05T07:37:03.922Z,572
2023-03-05T07:38:03.875Z,580
2023-03-05T07:39:04.865Z,588
2023-03-05T07:40:05.829Z,572
2023-03-05T07:41:06.496Z,524
2023-03-05T07:42:07.701Z,480
2023-03-05T07:43:08.351Z,464
2023-03-05T07:44:08.878Z,492
2023-03-05T07:45:09.924Z,540
2023-03-05T07:46:10.357Z,576
2023-03-05T07:47:10.660Z,588
2023-03-05T07:48:11.117Z,588
2023-03-05T07:49:11.642Z,596
2023-03-05T07:50:11.582Z,608
2023-03-05T07:51:11.790Z,644
2023-03-05T07:52:12.308Z,692
2023-03-05T07:53:12.565Z,724
2023-03-05T07:54:13.211Z,756
2023-03-05T07:55:13.832Z,796
2023-03-05T07:56:14.043Z,820
2023-03-05T07:57:14.717Z,820
2023-03-05T07:58:16.285Z,836
2023-03-05T07:59:16.827Z,828
2023-03-05T08:00:17.079Z,824
2023-03-05T08:01:19.346Z,820
2023-03-05T08:02:18.466Z,836
2023-03-05T08:03:18.445Z,876
2023-03-05T08:04:19.920Z,900
2023-03-05T08:05:19.983Z,904
2023-03-05T08:06:20.212Z,924
2023-03-05T08:07:21.477Z,972
2023-03-05T08:08:21.581Z,1040
2023-03-05T08:09:21.245Z,1140
2023-03-05T08:10:22.193Z,1288
2023-03-05T08:11:22.405Z,1368
2023-03-05T08:12:22.682Z,1392
2023-03-05T08:13:23.262Z,1360
2023-03-05T08:14:23.622Z,1244
2023-03-05T08:15:23.983Z,1180
2023-03-05T08:16:24.043Z,1196
2023-03-05T08:17:24.302Z,1304
2023-03-05T08:18:24.809Z,1512
2023-03-05T08:19:24.732Z,1684
2023-03-05T08:20:26.040Z,1800
2023-03-05T08:21:26.342Z,2020
2023-03-05T08:22:27.293Z,2020
2023-03-05T08:23:27.198Z,1916
2023-03-05T08:24:28.395Z,1748
2023-03-05T08:25:28.982Z,1716
2023-03-05T08:26:28.632Z,1740
2023-03-05T08:27:29.876Z,1656
2023-03-05T08:28:32.392Z,1612
2023-03-05T08:29:31.552Z,1628
2023-03-05T08:30:31.913Z,1648
2023-03-05T08:31:33.484Z,1672
2023-03-05T08:32:33.902Z,1752
2023-03-05T08:33:38.550Z,1836
2023-03-05T08:34:35.770Z,1952
2023-03-05T08:35:36.680Z,1988
2023-03-05T08:36:36.985Z,1988
2023-03-05T08:37:36.645Z,2052
2023-03-05T08:38:37.676Z,2068
2023-03-05T08:39:38.612Z,2140
2023-03-05T08:40:39.545Z,2140
2023-03-05T08:41:40.079Z,2156
2023-03-05T08:42:40.006Z,2152
2023-03-05T08:43:41.285Z,2132
2023-03-05T08:44:40.961Z,2172
2023-03-05T08:45:41.710Z,2232
2023-03-05T08:46:42.950Z,2152
2023-03-05T08:47:43.381Z,2124
2023-03-05T08:48:44.621Z,2020
2023-03-05T08:49:44.842Z,1976
2023-03-05T08:50:44.805Z,1996
2023-03-05T08:51:45.740Z,2000
2023-03-05T08:52:46.954Z,1972
2023-03-05T08:53:46.889Z,1988
2023-03-05T08:54:47.394Z,1968
2023-03-05T08:55:50.168Z,1944
2023-03-05T08:56:49.091Z,1952
2023-03-05T08:57:49.328Z,1932
2023-03-05T08:58:49.631Z,1860
2023-03-05T08:59:49.919Z,1820
2023-03-05T09:00:51.150Z,1804
2023-03-05T09:01:51.347Z,1768
2023-03-05T09:02:52.240Z,1796
2023-03-05T09:03:52.572Z,1880
2023-03-05T09:04:53.250Z,1964
2023-03-05T09:05:53.724Z,1976
2023-03-05T09:06:54.375Z,1924
2023-03-05T09:07:55.595Z,1792
2023-03-05T09:08:56.246Z,1752
2023-03-05T09:09:57.193Z,1760
2023-03-05T09:10:57.419Z,1872
2023-03-05T09:11:57.932Z,1980
2023-03-05T09:12:57.980Z,2008
2023-03-05T09:13:59.281Z,1960
2023-03-05T09:14:59.507Z,1912
2023-03-05T09:16:00.353Z,1868
2023-03-05T09:17:00.644Z,1860
2023-03-05T09:18:00.590Z,1824
2023-03-05T09:19:01.249Z,1780
2023-03-05T09:20:01.877Z,1748
2023-03-05T09:21:03.102Z,1780
2023-03-05T09:22:07.096Z,1880
2023-03-05T09:23:04.313Z,1932
2023-03-05T09:24:04.273Z,1952
2023-03-05T09:25:04.939Z,2044
2023-03-05T09:26:06.248Z,2204
2023-03-05T09:27:07.477Z,2332
2023-03-05T09:28:08.427Z,2452
2023-03-05T09:29:08.739Z,2572
2023-03-05T09:30:09.000Z,2544
2023-03-05T09:31:09.921Z,2480
2023-03-05T09:32:10.771Z,2436
2023-03-05T09:33:10.509Z,2532
2023-03-05T09:34:11.455Z,2716
2023-03-05T09:35:12.107Z,2940
2023-03-05T09:36:12.644Z,3028
2023-03-05T09:37:13.568Z,3108
2023-03-05T09:38:14.782Z,2988
2023-03-05T09:39:14.730Z,2764
2023-03-05T09:40:15.991Z,2520
2023-03-05T09:41:16.513Z,2372
2023-03-05T09:42:16.138Z,2252
2023-03-05T09:43:17.105Z,2148
2023-03-05T09:44:18.419Z,2072
2023-03-05T09:45:18.367Z,2056
2023-03-05T09:46:19.564Z,2096
2023-03-05T09:47:20.496Z,2240
2023-03-05T09:48:20.720Z,2356
2023-03-05T09:49:20.665Z,2416
2023-03-05T09:50:21.626Z,2400
2023-03-05T09:51:21.893Z,2404
2023-03-05T09:52:22.548Z,2492
2023-03-05T09:53:23.198Z,2596
2023-03-05T09:54:23.966Z,2640
2023-03-05T09:55:24.619Z,2696
2023-03-05T09:56:26.252Z,2788
2023-03-05T09:57:26.205Z,2808
2023-03-05T09:58:27.462Z,2772
2023-03-05T09:59:27.741Z,2720
2023-03-05T10:00:27.965Z,2688
2023-03-05T10:01:28.657Z,2576
2023-03-05T10:02:29.148Z,2568
2023-03-05T10:03:29.578Z,2588
2023-03-05T10:04:30.449Z,2512
2023-03-05T10:05:30.382Z,2360
2023-03-05T10:06:31.382Z,2260
2023-03-05T10:07:31.934Z,2232
2023-03-05T10:08:32.864Z,2252
2023-03-05T10:09:33.087Z,2216
2023-03-05T10:10:34.008Z,2088
2023-03-05T10:11:34.660Z,2000
2023-03-05T10:12:34.591Z,1980
2023-03-05T10:13:35.927Z,1912
2023-03-05T10:14:37.231Z,1876
2023-03-05T10:15:38.138Z,1828
2023-03-05T10:16:38.028Z,1780
2023-03-05T10:17:38.118Z,1784
2023-03-05T10:18:39.029Z,1764
2023-03-05T10:19:39.949Z,1732
2023-03-05T10:20:41.177Z,1712
2023-03-05T10:21:40.840Z,1700
2023-03-05T10:22:42.369Z,1724
2023-03-05T10:23:42.584Z,1816
2023-03-05T10:24:43.082Z,2044
2023-03-05T10:25:43.018Z,2404
2023-03-05T10:26:44.046Z,2644
2023-03-05T10:27:43.839Z,2804
2023-03-05T10:28:45.142Z,2752
2023-03-05T10:29:45.719Z,2912
2023-03-05T10:30:45.964Z,3172
2023-03-05T10:31:46.497Z,2644
2023-03-05T10:32:47.171Z,2472
2023-03-05T10:33:47.224Z,2392
2023-03-05T10:34:48.164Z,2468
2023-03-05T10:35:48.919Z,2428
2023-03-05T10:36:49.036Z,2340
2023-03-05T10:37:49.606Z,2452
2023-03-05T10:38:49.820Z,2532
2023-03-05T10:39:49.755Z,2440
2023-03-05T10:40:50.128Z,2384
2023-03-05T10:41:51.085Z,2392
2023-03-05T10:42:51.744Z,2360
2023-03-05T10:43:52.447Z,2376
2023-03-05T10:44:53.739Z,2504
2023-03-05T10:45:54.240Z,2528
2023-03-05T10:46:55.743Z,2548
2023-03-05T10:47:54.621Z,2424
2023-03-05T10:48:55.483Z,2280
2023-03-05T10:49:56.989Z,2252
2023-03-05T10:50:56.338Z,2136
2023-03-05T10:51:57.279Z,2072
2023-03-05T10:52:57.265Z,2048
2023-03-05T10:53:57.926Z,2088
2023-03-05T10:54:58.594Z,2080
2023-03-05T10:55:59.525Z,2052
2023-03-05T10:57:00.589Z,2044
2023-03-05T10:58:01.830Z,2048
2023-03-05T10:59:02.069Z,2072
2023-03-05T11:00:02.349Z,2132
2023-03-05T11:01:02.880Z,2188
2023-03-05T11:02:02.908Z,2208
2023-03-05T11:03:03.511Z,2180
2023-03-05T11:04:04.232Z,2160
2023-03-05T11:05:05.473Z,2112
2023-03-05T11:06:06.012Z,2024
2023-03-05T11:07:06.608Z,1920
2023-03-05T11:08:06.830Z,1792
2023-03-05T11:09:07.534Z,1664
2023-03-05T11:10:08.166Z,1552
2023-03-05T11:11:10.100Z,1476
2023-03-05T11:12:08.773Z,1428
2023-03-05T11:13:09.974Z,1384
2023-03-05T11:14:10.703Z,1316
2023-03-05T11:15:11.980Z,1240
2023-03-05T11:16:12.502Z,1164
2023-03-05T11:17:12.798Z,1108
2023-03-05T11:18:12.722Z,1092
2023-03-05T11:19:13.105Z,1088
2023-03-05T11:20:13.981Z,1104
2023-03-05T11:21:14.929Z,1116
2023-03-05T11:22:15.436Z,1112
2023-03-05T11:23:15.451Z,1088
2023-03-05T11:24:16.680Z,1056
2023-03-05T11:25:17.635Z,1036
2023-03-05T11:26:18.284Z,1032
2023-03-05T11:27:18.751Z,1032
2023-03-05T11:28:37.188Z,1036
2023-03-05T11:29:20.821Z,1032
2023-03-05T11:30:21.402Z,1040
2023-03-05T11:31:22.277Z,1048
2023-03-05T11:32:22.271Z,1052
2023-03-05T11:33:22.805Z,1048
2023-03-05T11:34:23.474Z,1036
2023-03-05T11:35:24.869Z,1020
2023-03-05T11:36:24.272Z,1044
2023-03-05T11:37:25.607Z,1088
2023-03-05T11:38:26.125Z,1152
2023-03-05T11:39:25.986Z,1196
2023-03-05T11:40:27.215Z,1220
2023-03-05T11:41:27.417Z,1204
2023-03-05T11:42:28.120Z,1164
2023-03-05T11:43:28.373Z,1128
2023-03-05T11:44:28.921Z,1088
2023-03-05T11:45:29.214Z,1044
2023-03-05T11:46:30.083Z,1024
2023-03-05T11:47:29.624Z,1020
2023-03-05T11:48:30.831Z,1016
2023-03-05T11:49:34.857Z,1012
2023-03-05T11:50:32.657Z,1004
2023-03-05T11:51:32.876Z,1012
2023-03-05T11:52:33.501Z,1024
2023-03-05T11:53:34.006Z,1024
2023-03-05T11:54:33.977Z,1016
2023-03-05T11:55:33.656Z,1024
2023-03-05T11:56:34.601Z,1048
2023-03-05T11:57:35.416Z,1084
2023-03-05T11:58:35.627Z,1116
2023-03-05T11:59:35.589Z,1132
2023-03-05T12:00:35.916Z,1136
2023-03-05T12:01:36.483Z,1136
2023-03-05T12:02:36.549Z,1156
2023-03-05T12:03:36.648Z,1192
2023-03-05T12:04:36.891Z,1212
2023-03-05T12:05:37.391Z,1208
2023-03-05T12:06:37.027Z,1200
2023-03-05T12:07:39.457Z,1204
2023-03-05T12:08:38.381Z,1188
2023-03-05T12:09:39.497Z,1164
2023-03-05T12:10:39.765Z,1168
2023-03-05T12:11:39.853Z,1212
2023-03-05T12:12:40.913Z,1312
2023-03-05T12:13:43.079Z,1452
2023-03-05T12:14:42.994Z,1592
2023-03-05T12:15:43.552Z,1704
2023-03-05T12:16:44.084Z,1784
2023-03-05T12:17:44.587Z,1792
2023-03-05T12:18:45.249Z,1820
2023-03-05T12:19:44.991Z,1884
2023-03-05T12:20:46.532Z,1936
2023-03-05T12:21:46.914Z,1952
2023-03-05T12:22:47.239Z,1904
2023-03-05T12:23:48.034Z,1868
2023-03-05T12:24:47.741Z,1852
2023-03-05T12:25:49.677Z,1820
2023-03-05T12:26:49.454Z,1824
2023-03-05T12:27:50.564Z,1868
2023-03-05T12:28:50.791Z,1896
2023-03-05T12:29:51.461Z,1900
2023-03-05T12:30:52.543Z,1856
2023-03-05T12:31:53.376Z,1676
2023-03-05T12:32:54.215Z,1480
2023-03-05T12:33:54.929Z,1356
2023-03-05T12:34:55.681Z,1256
2023-03-05T12:35:56.299Z,1132
2023-03-05T12:36:56.912Z,1056
2023-03-05T12:37:57.328Z,1020
2023-03-05T12:38:58.226Z,1020
2023-03-05T12:39:58.272Z,1044
2023-03-05T12:40:57.911Z,1080
2023-03-05T12:41:58.874Z,1120
2023-03-05T12:42:59.833Z,1164
2023-03-05T12:43:59.467Z,1188
2023-03-05T12:45:01.527Z,1220
2023-03-05T12:46:02.664Z,1228
2023-03-05T12:47:02.204Z,1208
2023-03-05T12:48:02.987Z,1192
2023-03-05T12:49:03.313Z,1192
2023-03-05T12:50:03.973Z,1172
2023-03-05T12:51:04.589Z,1148
2023-03-05T12:52:05.817Z,1132
2023-03-05T12:53:07.188Z,1132
2023-03-05T12:54:06.892Z,1136
2023-03-05T12:55:08.419Z,1136
2023-03-05T12:56:08.653Z,1132
2023-03-05T12:57:08.601Z,1136
2023-03-05T12:58:09.693Z,1168
2023-03-05T12:59:10.248Z,1192
2023-03-05T13:00:11.249Z,1200
2023-03-05T13:01:12.117Z,1196
2023-03-05T13:02:13.090Z,1192
2023-03-05T13:03:13.476Z,1204
2023-03-05T13:04:13.935Z,1216
2023-03-05T13:05:13.866Z,1228
2023-03-05T13:06:15.100Z,1220
2023-03-05T13:07:14.741Z,1208
2023-03-05T13:08:16.267Z,1180
2023-03-05T13:09:15.344Z,1148
2023-03-05T13:10:16.525Z,1120
2023-03-05T13:11:16.475Z,1092
2023-03-05T13:12:17.858Z,1076
2023-03-05T13:13:18.741Z,1060
2023-03-05T13:14:18.673Z,1036
2023-03-05T13:15:18.967Z,1012
2023-03-05T13:16:19.410Z,992
2023-03-05T13:17:19.813Z,968
2023-03-05T13:18:20.455Z,952
2023-03-05T13:19:20.365Z,936
2023-03-05T13:20:21.297Z,916
2023-03-05T13:21:22.208Z,892
2023-03-05T13:22:22.429Z,864
2023-03-05T13:23:23.381Z,860
2023-03-05T13:24:25.845Z,872
2023-03-05T13:25:24.359Z,900
2023-03-05T13:26:24.843Z,920
2023-03-05T13:27:25.078Z,928
2023-03-05T13:28:25.529Z,920
2023-03-05T13:29:26.507Z,908
2023-03-05T13:30:27.016Z,880
2023-03-05T13:31:27.648Z,864
2023-03-05T13:32:28.197Z,860
2023-03-05T13:33:28.300Z,864
2023-03-05T13:34:37.609Z,876
2023-03-05T13:35:28.916Z,888
2023-03-05T13:36:29.342Z,892
2023-03-05T13:37:30.571Z,884
2023-03-05T13:38:30.782Z,880
2023-03-05T13:39:30.990Z,884
2023-03-05T13:40:31.246Z,888
2023-03-05T13:41:31.896Z,892
2023-03-05T13:42:32.824Z,896
2023-03-05T13:43:33.028Z,908
2023-03-05T13:44:33.690Z,932
2023-03-05T13:45:35.559Z,944
2023-03-05T13:46:36.520Z,920
2023-03-05T13:47:37.127Z,888
2023-03-05T13:48:37.413Z,860
2023-03-05T13:49:38.740Z,856
2023-03-05T13:50:38.755Z,852
2023-03-05T13:51:39.549Z,836
2023-03-05T13:52:40.206Z,828
2023-03-05T13:53:41.411Z,840
2023-03-05T13:54:41.335Z,864
2023-03-05T13:55:42.537Z,892
2023-03-05T13:56:42.484Z,912
2023-03-05T13:57:43.470Z,924
2023-03-05T13:58:44.246Z,928
2023-03-05T13:59:45.467Z,912
2023-03-05T14:00:46.717Z,888
2023-03-05T14:01:47.895Z,868
2023-03-05T14:02:48.121Z,860
2023-03-05T14:03:48.046Z,852
2023-03-05T14:04:49.335Z,852
2023-03-05T14:05:49.384Z,844
2023-03-05T14:06:50.338Z,824
2023-03-05T14:07:50.973Z,808
2023-03-05T14:08:51.451Z,804
2023-03-05T14:09:51.832Z,784